Time;durP1;ratioP1;P1;durP2;ratioP2;P2;SDS_P1;SDS_P2;PMS_P1;PMS_P2;Temp;Humidity;BMP_temperature;BMP_pressure;BME280_temperature;BME280_humidity;BME280_pressure;Samples;Min_cycle;Max_cycle;Signal;HPM_P1;HPM_P2
2023/10/31 00:00:40;;;;;;;;;0.00;0.00;;;;;15.56;56.76;99717.78;5080041;28;45387;-75
2023/10/31 00:03:06;;;;;;;;;0.00;0.00;;;;;15.32;56.45;99673.13;5080345;27;45410;-75
2023/10/31 00:05:31;;;;;;;;;0.00;0.00;;;;;14.96;56.39;99615.34;5080192;27;45222;-76
2023/10/31 00:07:57;;;;;;;;;0.00;0.00;;;;;15.45;56.00;99689.75;5078506;27;45339;-76
2023/10/31 00:10:23;;;;;;;;;0.00;0.00;;;;;15.57;55.52;99704.63;5078496;28;45381;-76
2023/10/31 00:12:48;;;;;;;;;0.00;0.00;;;;;15.58;55.33;99705.47;5080067;28;45318;-80
2023/10/31 00:15:14;;;;;;;;;0.00;0.00;;;;;15.20;54.86;99653.88;5080178;28;45479;-76
2023/10/31 00:17:40;;;;;;;;;0.00;0.00;;;;;15.34;54.60;99691.56;5079879;27;46565;-76
2023/10/31 00:20:06;;;;;;;;;0.00;0.00;;;;;15.57;54.40;99723.03;5079667;28;45476;-76
2023/10/31 00:22:32;;;;;;;;;0.00;0.00;;;;;15.60;54.30;99715.16;5079817;27;45518;-76
2023/10/31 00:24:57;;;;;;;;;0.00;0.00;;;;;15.20;54.30;99644.25;5079728;28;45342;-76
2023/10/31 00:27:23;;;;;;;;;0.00;0.00;;;;;15.08;54.56;99623.22;5079534;27;45292;-85
2023/10/31 00:29:48;;;;;;;;;0.00;0.00;;;;;15.42;54.42;99673.09;5079575;27;45446;-75
2023/10/31 00:32:14;;;;;;;;;0.00;0.00;;;;;15.64;54.19;99705.50;5079658;28;45318;-76
2023/10/31 00:34:40;;;;;;;;;0.00;0.00;;;;;15.70;53.36;99695.78;5080206;27;45294;-76
2023/10/31 00:37:05;;;;;;;;;0.00;0.00;;;;;15.88;53.27;99717.69;5079367;28;45878;-76
2023/10/31 00:39:31;;;;;;;;;0.00;0.00;;;;;15.49;53.29;99649.38;5079333;28;45529;-76
2023/10/31 00:41:56;;;;;;;;;0.00;0.00;;;;;15.79;53.04;99704.56;5079287;28;46122;-76
2023/10/31 00:44:22;;;;;;;;;0.00;0.00;;;;;15.44;52.80;99640.63;5079442;28;45503;-85
2023/10/31 00:46:47;;;;;;;;;0.00;0.00;;;;;15.94;52.82;99728.19;5079160;28;45428;-76
2023/10/31 00:49:13;;;;;;;;;0.00;0.00;;;;;15.83;52.84;99701.03;5079565;27;45715;-76
2023/10/31 00:51:38;;;;;;;;;0.00;0.00;;;;;15.99;52.96;99729.03;5079675;27;45511;-76
2023/10/31 00:54:04;;;;;;;;;0.00;0.00;;;;;15.73;52.96;99684.41;5079520;28;45426;-76
2023/10/31 00:56:30;;;;;;;;;0.00;0.00;;;;;15.89;52.46;99709.75;5078997;27;45476;-76
2023/10/31 00:58:55;;;;;;;;;0.00;0.00;;;;;15.89;52.46;99708.91;5077525;27;45338;-76
2023/10/31 01:01:21;;;;;;;;;0.00;0.00;;;;;15.43;52.58;99635.38;5079166;28;45250;-84
2023/10/31 01:03:46;;;;;;;;;0.00;0.00;;;;;15.54;52.65;99665.16;5079362;27;45427;-76
2023/10/31 01:06:12;;;;;;;;;0.00;0.00;;;;;15.91;52.22;99730.84;5079148;27;45382;-76
2023/10/31 01:08:37;;;;;;;;;0.00;0.00;;;;;15.57;52.62;99687.97;5078867;27;45322;-76
2023/10/31 01:11:03;;;;;;;;;0.00;0.00;;;;;14.85;51.85;99575.97;5078945;28;45478;-76
2023/10/31 01:13:29;;;;;;;;;0.00;0.00;;;;;15.79;51.90;99730.91;5079056;28;45317;-76
2023/10/31 01:15:54;;;;;;;;;0.00;0.00;;;;;15.79;51.11;99742.28;5079019;28;45421;-76
2023/10/31 01:18:20;;;;;;;;;0.00;0.00;;;;;15.82;51.53;99738.81;5078810;28;45301;-76
2023/10/31 01:20:46;;;;;;;;;0.00;0.00;;;;;15.15;51.65;99642.50;5078964;27;45468;-76
2023/10/31 01:23:11;;;;;;;;;0.00;0.00;;;;;15.76;51.87;99755.50;5079330;28;45349;-76
2023/10/31 01:25:37;;;;;;;;;0.00;0.00;;;;;15.07;52.01;99651.28;5078621;27;46043;-76
2023/10/31 01:28:02;;;;;;;;;0.00;0.00;;;;;15.55;51.98;99740.59;5078654;27;45208;-76
2023/10/31 01:30:28;;;;;;;;;0.00;0.00;;;;;15.62;51.99;99765.16;5078826;27;45450;-77
2023/10/31 01:32:53;;;;;;;;;0.00;0.00;;;;;15.59;52.18;99766.03;5078844;27;45473;-85
2023/10/31 01:35:19;;;;;;;;;0.00;0.00;;;;;15.41;52.17;99748.53;5078483;28;45375;-76
2023/10/31 01:37:45;;;;;;;;;0.00;0.00;;;;;15.48;52.27;99770.47;5077470;28;45260;-76
2023/10/31 01:40:13;;;;;;;;;0.00;0.00;;;;;15.54;52.33;99773.09;5078538;27;45258;-76
2023/10/31 01:42:39;;;;;;;;;0.00;0.00;;;;;15.53;52.23;99779.22;5078636;27;45469;-76
2023/10/31 01:45:06;;;;;;;;;0.00;0.00;;;;;15.55;51.93;99780.09;5078133;27;46170;-76
2023/10/31 01:47:32;;;;;;;;;0.00;0.00;;;;;15.58;51.85;99789.72;5078347;27;45354;-76
2023/10/31 01:49:59;;;;;;;;;0.00;0.00;;;;;15.59;52.00;99788.88;5078214;28;45347;-77
2023/10/31 01:52:25;;;;;;;;;0.00;0.00;;;;;15.55;52.26;99781.84;5078411;27;45499;-85
2023/10/31 01:54:51;;;;;;;;;0.00;0.00;;;;;14.80;51.82;99660.13;5077640;27;46297;-77
2023/10/31 01:57:20;;;;;;;;;0.00;0.00;;;;;15.54;52.16;99791.50;5076300;28;45388;-76
2023/10/31 01:59:46;;;;;;;;;0.00;0.00;;;;;15.52;52.07;99796.78;5078395;28;45379;-76
2023/10/31 02:02:12;;;;;;;;;0.00;0.00;;;;;15.49;52.13;99803.78;5078455;28;45544;-76
2023/10/31 02:04:38;;;;;;;;;0.00;0.00;;;;;14.87;52.50;99711.81;5077989;28;45542;-76
2023/10/31 02:07:04;;;;;;;;;0.00;0.00;;;;;15.38;52.87;99803.84;5077751;27;45454;-76
2023/10/31 02:09:30;;;;;;;;;0.00;0.00;;;;;15.35;53.15;99802.94;5078064;27;45488;-76
2023/10/31 02:11:56;;;;;;;;;0.00;0.00;;;;;15.15;53.46;99782.78;5078169;28;45257;-86
2023/10/31 02:14:25;;;;;;;;;0.00;0.00;;;;;15.05;53.87;99796.84;5077414;27;45570;-76
2023/10/31 02:16:51;;;;;;;;;0.00;0.00;;;;;15.14;54.38;99817.88;5077770;27;45388;-76
2023/10/31 02:19:20;;;;;;;;;0.00;0.00;;;;;15.06;54.41;99814.34;5078015;27;45438;-76
2023/10/31 02:21:46;;;;;;;;;0.00;0.00;;;;;14.75;54.30;99772.28;5078179;27;45300;-76
2023/10/31 02:24:11;;;;;;;;;0.00;0.00;;;;;14.83;54.71;99802.09;5077638;27;45538;-76
2023/10/31 02:26:37;;;;;;;;;0.00;0.00;;;;;14.88;55.11;99816.13;5077686;28;45366;-76
2023/10/31 02:29:03;;;;;;;;;0.00;0.00;;;;;14.39;55.05;99734.53;5077870;27;45518;-77
2023/10/31 02:31:29;;;;;;;;;0.00;0.00;;;;;14.84;54.41;99818.72;5077997;27;45669;-77
2023/10/31 02:33:55;;;;;;;;;0.00;0.00;;;;;14.88;53.98;99818.75;5077436;27;45602;-78
2023/10/31 02:36:21;;;;;;;;;0.00;0.00;;;;;14.41;54.15;99747.69;5077579;28;45503;-76
2023/10/31 02:38:47;;;;;;;;;0.00;0.00;;;;;14.58;54.04;99774.00;5077957;28;45454;-76
2023/10/31 02:41:13;;;;;;;;;0.00;0.00;;;;;14.65;54.07;99783.69;5077840;27;45565;-77
2023/10/31 02:43:40;;;;;;;;;0.00;0.00;;;;;14.88;54.33;99824.03;5077348;27;45235;-85
2023/10/31 02:46:06;;;;;;;;;0.00;0.00;;;;;14.36;54.20;99736.28;5077257;27;45418;-76
2023/10/31 02:48:38;;;;;;;;;0.00;0.00;;;;;14.81;54.33;99816.97;5076055;28;45646;-76
2023/10/31 02:51:09;;;;;;;;;0.00;0.00;;;;;14.37;54.31;99753.81;5077807;28;45367;-76
2023/10/31 02:53:36;;;;;;;;;0.00;0.00;;;;;14.93;54.37;99847.69;5075882;28;47043;-76
2023/10/31 02:56:02;;;;;;;;;0.00;0.00;;;;;14.94;54.29;99843.28;5077193;28;45531;-76
2023/10/31 02:58:28;;;;;;;;;0.00;0.00;;;;;14.93;54.26;99839.78;5077221;27;45491;-77
2023/10/31 03:00:53;;;;;;;;;0.00;0.00;;;;;14.83;54.01;99823.13;5077441;28;45306;-76
2023/10/31 03:03:19;;;;;;;;;0.00;0.00;;;;;14.10;54.00;99692.47;5076010;28;46548;-75
2023/10/31 03:05:45;;;;;;;;;0.00;0.00;;;;;14.43;54.06;99744.19;5077229;27;45472;-76
2023/10/31 03:08:12;;;;;;;;;0.00;0.00;;;;;14.99;54.22;99841.56;5077144;28;45350;-76
2023/10/31 03:10:39;;;;;;;;;0.00;0.00;;;;;14.84;54.28;99824.91;5080964;27;45341;-76
2023/10/31 03:13:04;;;;;;;;;0.00;0.00;;;;;14.80;54.34;99822.22;5080573;28;45381;-76
2023/10/31 03:15:30;;;;;;;;;0.00;0.00;;;;;14.83;54.15;99830.13;5080633;27;45325;-76
2023/10/31 03:17:56;;;;;;;;;0.00;0.00;;;;;14.48;54.20;99762.56;5080833;28;45323;-80
2023/10/31 03:20:22;;;;;;;;;0.00;0.00;;;;;14.93;54.04;99837.16;5081187;27;45238;-75
2023/10/31 03:22:47;;;;;;;;;0.00;0.00;;;;;14.90;54.52;99838.03;5080939;27;46511;-75
2023/10/31 03:25:13;;;;;;;;;0.00;0.00;;;;;14.87;54.33;99840.66;5080562;28;45444;-75
2023/10/31 03:27:38;;;;;;;;;0.00;0.00;;;;;14.48;54.72;99775.72;5080775;27;45414;-76
2023/10/31 03:30:05;;;;;;;;;0.00;0.00;;;;;14.51;54.63;99796.75;5080850;27;45370;-76
2023/10/31 03:32:30;;;;;;;;;0.00;0.00;;;;;14.77;54.97;99845.91;5080315;27;45243;-76
2023/10/31 03:34:56;;;;;;;;;0.00;0.00;;;;;14.59;55.14;99817.84;5080310;27;45591;-78
2023/10/31 03:37:21;;;;;;;;;0.00;0.00;;;;;14.48;54.94;99813.41;5080746;28;45319;-76
2023/10/31 03:39:47;;;;;;;;;0.00;0.00;;;;;14.57;55.13;99833.59;5080492;27;45493;-76
2023/10/31 03:42:12;;;;;;;;;0.00;0.00;;;;;14.53;55.17;99843.19;5078915;27;46801;-76
2023/10/31 03:44:38;;;;;;;;;0.00;0.00;;;;;14.14;55.33;99775.63;5079078;27;45209;-76
2023/10/31 03:47:04;;;;;;;;;0.00;0.00;;;;;14.45;55.31;99844.06;5080245;27;45453;-76
2023/10/31 03:49:29;;;;;;;;;0.00;0.00;;;;;14.58;55.44;99871.25;5080398;27;45321;-85
2023/10/31 03:51:55;;;;;;;;;0.00;0.00;;;;;14.57;55.79;99874.78;5080047;27;45494;-75
2023/10/31 03:54:21;;;;;;;;;0.00;0.00;;;;;14.59;55.55;99878.28;5079846;27;45500;-84
2023/10/31 03:56:47;;;;;;;;;0.00;0.00;;;;;14.43;55.36;99858.94;5080203;27;45388;-85
2023/10/31 03:59:13;;;;;;;;;0.00;0.00;;;;;14.52;55.78;99882.59;5095736;27;45487;-75
2023/10/31 04:01:39;;;;;;;;;0.00;0.00;;;;;14.49;55.86;99893.13;5079479;28;46080;-85
2023/10/31 04:04:05;;;;;;;;;0.00;0.00;;;;;14.32;55.71;99874.66;5079797;28;45420;-79
2023/10/31 04:06:30;;;;;;;;;0.00;0.00;;;;;13.98;55.97;99827.22;5079847;27;45361;-85
2023/10/31 04:08:56;;;;;;;;;0.00;0.00;;;;;13.95;56.32;99815.81;5079909;27;45535;-83
2023/10/31 04:11:21;;;;;;;;;0.67;0.00;;;;;14.13;56.49;99847.44;5079551;27;47698;-85
2023/10/31 04:13:47;;;;;;;;;0.00;0.00;;;;;14.32;56.51;99896.56;5079323;27;45456;-79
2023/10/31 04:16:13;;;;;;;;;0.25;0.00;;;;;13.87;56.30;99821.94;5078124;28;45477;-78
2023/10/31 04:18:38;;;;;;;;;0.00;0.00;;;;;14.08;56.12;99843.91;5079264;28;45433;-85
2023/10/31 04:21:04;;;;;;;;;0.00;0.00;;;;;14.31;56.07;99889.53;5079663;27;45365;-83
2023/10/31 04:23:30;;;;;;;;;0.00;0.00;;;;;14.30;56.11;99897.41;5078874;27;45444;-85
2023/10/31 04:25:56;;;;;;;;;0.00;0.00;;;;;14.10;56.75;99877.19;5079228;28;45353;-85
2023/10/31 04:28:21;;;;;;;;;0.00;0.00;;;;;14.17;57.05;99904.38;5079613;27;45338;-85
2023/10/31 04:30:47;;;;;;;;;0.00;0.00;;;;;14.16;57.38;99899.97;5078611;28;46493;-81
2023/10/31 04:33:13;;;;;;;;;0.00;0.00;;;;;13.78;56.91;99856.00;5078636;27;45407;-85
2023/10/31 04:35:38;;;;;;;;;0.00;0.00;;;;;14.05;57.57;99918.31;5078039;28;45507;-74
2023/10/31 04:38:04;;;;;;;;;0.00;0.00;;;;;13.60;57.45;99842.78;5081345;27;45468;-75
2023/10/31 04:40:29;;;;;;;;;0.00;0.00;;;;;14.04;56.95;99921.78;5088444;28;45230;-76
2023/10/31 04:42:55;;;;;;;;;0.00;0.00;;;;;14.04;56.89;99932.28;5111433;27;45452;-77
2023/10/31 04:45:20;;;;;;;;;0.00;0.00;;;;;14.07;56.70;99929.69;5080643;27;45257;-77
2023/10/31 04:47:47;;;;;;;;;0.00;0.00;;;;;14.11;56.27;99936.72;5079469;27;45303;-75
2023/10/31 04:50:13;;;;;;;;;0.00;0.00;;;;;13.77;56.19;99887.50;5079101;27;45499;-74
2023/10/31 04:52:38;;;;;;;;;0.00;0.00;;;;;14.10;56.14;99949.84;5078611;27;45597;-74
2023/10/31 04:55:04;;;;;;;;;0.00;0.00;;;;;13.83;56.22;99911.19;5079102;27;45439;-75
2023/10/31 04:57:31;;;;;;;;;0.00;0.00;;;;;14.08;56.51;99948.97;5079433;27;45588;-74
2023/10/31 04:59:58;;;;;;;;;0.00;0.00;;;;;13.84;56.05;99918.19;5078817;27;45480;-75
2023/10/31 05:02:23;;;;;;;;;0.00;0.00;;;;;13.89;55.98;99926.97;5079405;27;45317;-74
2023/10/31 05:04:50;;;;;;;;;0.00;0.00;;;;;13.97;56.38;99930.53;5079126;27;45218;-75
2023/10/31 05:07:19;;;;;;;;;0.00;0.00;;;;;13.74;55.78;99896.22;5079143;27;45527;-74
2023/10/31 05:09:45;;;;;;;;;0.00;0.00;;;;;13.72;56.21;99890.97;5078695;27;45445;-74
2023/10/31 05:12:10;;;;;;;;;0.00;0.00;;;;;14.05;56.15;99943.69;5078798;27;45407;-75
2023/10/31 05:14:36;;;;;;;;;0.00;0.00;;;;;14.16;56.07;99960.38;5078801;27;45492;-74
2023/10/31 05:17:02;;;;;;;;;0.00;0.00;;;;;13.93;56.46;99939.25;5079017;27;45440;-82
2023/10/31 05:19:27;;;;;;;;;0.00;0.00;;;;;13.62;56.51;99885.66;5078539;27;45941;-74
2023/10/31 05:21:53;;;;;;;;;0.00;0.00;;;;;14.05;56.56;99969.97;5079028;27;45379;-74
2023/10/31 05:24:19;;;;;;;;;0.00;0.00;;;;;13.68;56.52;99907.56;5078870;27;45541;-74
2023/10/31 05:26:44;;;;;;;;;0.00;0.00;;;;;14.04;56.27;99960.31;5079050;27;45410;-74
2023/10/31 05:29:13;;;;;;;;;0.75;0.00;;;;;14.03;56.00;99972.56;5078512;27;46252;-74
2023/10/31 05:31:38;;;;;;;;;0.00;0.00;;;;;13.64;56.63;99913.66;5077705;28;45471;-77
2023/10/31 05:34:04;;;;;;;;;0.00;0.00;;;;;14.00;56.55;99963.78;5078606;27;45426;-84
2023/10/31 05:36:30;;;;;;;;;1.00;0.00;;;;;13.33;56.60;99849.59;5078699;27;45364;-74
2023/10/31 05:38:56;;;;;;;;;0.25;0.00;;;;;13.99;56.58;99964.69;5078624;27;46021;-74
2023/10/31 05:41:21;;;;;;;;;0.75;0.00;;;;;13.45;56.14;99869.78;5078451;27;45488;-74
2023/10/31 05:43:47;;;;;;;;;0.00;0.00;;;;;13.85;56.27;99941.81;5078684;27;45396;-74
2023/10/31 05:46:14;;;;;;;;;1.00;0.00;;;;;13.86;56.08;99942.69;5078705;27;45523;-74
2023/10/31 05:48:41;;;;;;;;;0.00;0.00;;;;;14.07;56.14;99973.47;5078183;27;45508;-74
2023/10/31 05:51:14;;;;;;;;;0.00;0.00;;;;;14.07;56.27;99984.84;5077672;27;45506;-83
2023/10/31 05:53:41;;;;;;;;;0.00;0.00;;;;;13.75;56.33;99928.59;5076809;28;45255;-83
2023/10/31 05:56:08;;;;;;;;;1.50;0.75;;;;;13.84;56.35;99942.66;5078316;27;45380;-83
2023/10/31 05:58:34;;;;;;;;;1.00;0.00;;;;;13.64;56.59;99920.66;5077859;28;45705;-82
2023/10/31 06:00:59;;;;;;;;;0.00;0.00;;;;;14.07;56.06;99982.22;5077984;28;45433;-74
2023/10/31 06:03:25;;;;;;;;;0.25;0.00;;;;;13.61;55.76;99894.38;5078236;28;45302;-83
2023/10/31 06:05:50;;;;;;;;;0.00;0.00;;;;;14.15;56.17;99991.91;5078281;27;45584;-79
2023/10/31 06:08:16;;;;;;;;;0.00;0.00;;;;;13.65;55.94;99911.94;5077741;28;45905;-82
2023/10/31 06:10:42;;;;;;;;;0.00;0.00;;;;;14.19;55.83;99991.06;5077811;27;45391;-83
2023/10/31 06:13:08;;;;;;;;;1.00;0.00;;;;;14.18;55.78;99995.41;5077737;28;45361;-82
2023/10/31 06:15:34;;;;;;;;;0.00;0.00;;;;;13.83;55.91;99929.56;5078092;28;45358;-83
2023/10/31 06:18:00;;;;;;;;;0.00;0.00;;;;;14.21;55.76;99994.59;5077829;28;46075;-83
2023/10/31 06:20:26;;;;;;;;;0.00;0.00;;;;;14.25;55.94;99999.00;5078066;27;45330;-75
2023/10/31 06:22:52;;;;;;;;;0.00;0.00;;;;;14.12;55.72;99982.25;5077728;27;45474;-83
2023/10/31 06:25:18;;;;;;;;;3.00;3.00;;;;;14.29;55.42;100011.28;5077550;27;45458;-83
2023/10/31 06:27:44;;;;;;;;;1.25;1.25;;;;;14.28;55.51;99999.88;5077115;27;46121;-83
2023/10/31 06:30:10;;;;;;;;;7.25;5.25;;;;;14.04;55.37;99958.56;5077484;27;45479;-83
2023/10/31 06:32:36;;;;;;;;;3.00;2.00;;;;;14.35;55.42;100003.41;5077526;28;45469;-84
2023/10/31 06:35:02;;;;;;;;;3.75;3.75;;;;;14.03;55.42;99948.94;5077795;27;45502;-80
2023/10/31 06:37:28;;;;;;;;;4.25;4.25;;;;;14.38;55.31;100011.31;5077602;27;46055;-82
2023/10/31 06:39:54;;;;;;;;;5.25;4.00;;;;;14.33;55.40;100007.78;5077242;27;45327;-83
2023/10/31 06:42:20;;;;;;;;;9.50;8.00;;;;;13.96;55.19;99946.25;5077219;27;45192;-83
2023/10/31 06:44:46;;;;;;;;;2.25;2.25;;;;;14.47;55.00;100031.53;5077240;27;45507;-84
2023/10/31 06:47:11;;;;;;;;;6.25;2.00;;;;;14.49;54.91;100035.91;5077000;27;46047;-83
2023/10/31 06:49:37;;;;;;;;;0.00;0.00;;;;;13.93;54.93;99928.75;5075927;28;45477;-83
2023/10/31 06:52:04;;;;;;;;;0.00;0.00;;;;;14.54;55.01;100025.41;5076111;28;45513;-79
2023/10/31 06:54:31;;;;;;;;;0.00;0.00;;;;;14.19;54.07;99959.53;5077838;28;45269;-82
2023/10/31 06:56:57;;;;;;;;;0.00;0.00;;;;;14.65;54.29;100026.38;5077038;27;45974;-83
2023/10/31 06:59:23;;;;;;;;;0.00;0.00;;;;;14.49;54.20;100004.38;5076925;27;45359;-82
2023/10/31 07:01:49;;;;;;;;;0.00;0.00;;;;;14.33;54.22;99966.63;5077184;27;45315;-79
2023/10/31 07:04:16;;;;;;;;;0.25;0.00;;;;;14.59;53.79;100004.47;5077254;27;45313;-82
2023/10/31 07:06:42;;;;;;;;;0.00;0.00;;;;;14.59;53.97;100012.34;5076871;28;46238;-82
2023/10/31 07:09:07;;;;;;;;;0.00;0.00;;;;;14.83;54.07;100048.38;5077003;27;45424;-82
2023/10/31 07:11:34;;;;;;;;;0.00;0.00;;;;;14.76;53.98;100029.06;5077461;27;45370;-83
2023/10/31 07:14:04;;;;;;;;;0.00;0.00;;;;;14.54;53.77;99985.97;5077658;27;45337;-82
2023/10/31 07:16:32;;;;;;;;;1.25;0.75;;;;;14.93;53.60;100047.56;5077095;27;46088;-82
2023/10/31 07:18:58;;;;;;;;;2.75;2.75;;;;;14.86;53.42;100033.50;5076723;27;45407;-82
2023/10/31 07:21:23;;;;;;;;;1.25;1.25;;;;;14.93;53.33;100033.53;5076888;27;45328;-82
2023/10/31 07:23:49;;;;;;;;;1.00;0.00;;;;;15.08;53.36;100054.59;5077207;27;45412;-82
2023/10/31 07:26:15;;;;;;;;;0.00;0.00;;;;;14.90;53.40;100030.03;5076754;28;45515;-82
2023/10/31 07:28:40;;;;;;;;;0.67;0.67;;;;;15.17;53.09;100069.56;5076650;27;45487;-74
2023/10/31 07:31:07;;;;;;;;;0.00;0.00;;;;;15.23;52.80;100080.13;5076708;28;45499;-74
2023/10/31 07:33:32;;;;;;;;;0.00;0.00;;;;;15.28;52.91;100068.75;5077456;27;45547;-74
2023/10/31 07:35:58;;;;;;;;;0.33;0.00;;;;;15.31;52.75;100081.88;5076372;27;45425;-75
2023/10/31 07:38:23;;;;;;;;;2.50;2.50;;;;;15.27;52.71;100069.59;5076459;27;45463;-76
2023/10/31 07:40:49;;;;;;;;;1.25;0.75;;;;;15.40;53.01;100083.69;5076675;28;45529;-75
2023/10/31 07:43:16;;;;;;;;;1.33;1.00;;;;;15.04;52.69;100005.50;5075537;28;45556;-76
2023/10/31 07:45:41;;;;;;;;;0.33;0.00;;;;;15.58;52.55;100085.50;5076612;27;46053;-75
2023/10/31 07:48:08;;;;;;;;;2.00;0.00;;;;;15.84;51.96;100088.19;5076564;27;45407;-75
2023/10/31 07:50:34;;;;;;;;;0.00;0.00;;;;;16.14;51.15;100089.09;5077187;28;45482;-84
2023/10/31 07:52:59;;;;;;;;;1.33;0.00;;;;;17.04;50.09;100085.41;5075379;28;45302;-76
2023/10/31 07:55:25;;;;;;;;;1.00;0.00;;;;;18.19;48.11;100083.00;5078941;27;46255;-75
2023/10/31 07:57:53;;;;;;;;;0.00;0.00;;;;;19.31;46.21;100052.66;5086579;27;45505;-76
2023/10/31 08:00:19;;;;;;;;;2.00;0.00;;;;;20.31;42.96;99991.88;5076343;28;45565;-80
2023/10/31 08:02:44;;;;;;;;;0.00;0.00;;;;;21.88;41.40;100085.09;5079086;27;45682;-76
2023/10/31 08:05:11;;;;;;;;;1.00;0.00;;;;;22.67;39.18;100078.66;5085763;27;45623;-77
2023/10/31 08:07:36;;;;;;;;;0.00;0.00;;;;;23.53;37.27;100083.31;5078897;27;45463;-77
2023/10/31 08:10:03;;;;;;;;;0.67;0.67;;;;;23.55;37.15;99973.03;5079571;27;45493;-78
2023/10/31 08:12:29;;;;;;;;;0.00;0.00;;;;;24.56;35.82;100064.84;5079270;28;45580;-77
2023/10/31 08:14:55;;;;;;;;;0.00;0.00;;;;;25.21;34.20;100083.88;5078623;27;45580;-76
2023/10/31 08:17:21;;;;;;;;;0.00;0.00;;;;;24.70;34.71;99994.03;5078966;28;45643;-81
2023/10/31 08:19:47;;;;;;;;;0.00;0.00;;;;;24.01;35.23;100072.94;5078421;28;45464;-77
2023/10/31 08:22:13;;;;;;;;;0.00;0.00;;;;;23.22;37.59;100098.47;5078880;27;45537;-90
2023/10/31 08:24:39;;;;;;;;;0.33;0.00;;;;;22.91;37.88;100101.09;5078655;27;45692;-76
2023/10/31 08:27:06;;;;;;;;;1.00;0.00;;;;;24.09;35.95;100101.13;5079042;27;45444;-73
2023/10/31 08:29:32;;;;;;;;;0.00;0.00;;;;;25.02;35.40;100100.56;5078824;27;45413;-77
2023/10/31 08:31:57;;;;;;;;;0.00;0.00;;;;;25.39;33.53;100020.84;5078905;28;45501;-78
2023/10/31 08:34:23;;;;;;;;;0.00;0.00;;;;;26.59;32.76;100094.38;5078510;28;45314;-80
2023/10/31 08:36:49;;;;;;;;;1.67;0.00;;;;;26.95;31.85;100080.28;5077234;27;45592;-82
2023/10/31 08:39:14;;;;;;;;;0.67;0.00;;;;;27.46;31.02;100096.75;5078602;27;45397;-81
2023/10/31 08:41:51;;;;;;;;;0.00;0.00;;;;;27.32;30.14;100050.94;5079305;27;45347;-78
2023/10/31 08:44:16;;;;;;;;;0.00;0.00;;;;;27.74;30.93;100116.91;5079072;27;45533;-74
2023/10/31 08:46:42;;;;;;;;;0.00;0.00;;;;;27.91;31.67;100089.25;5078761;28;45516;-81
2023/10/31 08:49:08;;;;;;;;;0.00;0.00;;;;;28.15;31.01;100116.72;5078848;27;45490;-76
2023/10/31 08:51:33;;;;;;;;;0.00;0.00;;;;;28.41;30.35;100111.84;5078518;28;45527;-74
2023/10/31 08:53:59;;;;;;;;;19.25;19.25;;;;;28.33;29.61;100114.91;5078068;27;46351;-73
2023/10/31 08:56:27;;;;;;;;;0.67;0.00;;;;;28.75;30.03;100111.03;5078397;28;45408;-79
2023/10/31 08:58:53;;;;;;;;;1.00;1.00;;;;;28.68;30.11;100110.44;5075419;28;45408;-80
2023/10/31 09:01:19;;;;;;;;;0.00;0.00;;;;;28.25;29.56;100039.22;5078461;27;46230;-78
2023/10/31 09:03:44;;;;;;;;;0.00;0.00;;;;;28.32;29.85;100046.91;5078022;27;46180;-83
2023/10/31 09:06:10;;;;;;;;;0.00;0.00;;;;;28.30;29.98;100112.41;5076818;28;45283;-73
2023/10/31 09:08:36;;;;;;;;;0.00;0.00;;;;;28.09;30.57;100100.91;5078551;27;45413;-74
2023/10/31 09:11:06;;;;;;;;;1.00;1.00;;;;;28.38;30.72;100115.56;5078106;27;45624;-77
2023/10/31 09:13:32;;;;;;;;;0.33;0.00;;;;;28.25;29.91;100096.53;5076987;27;45410;-85
2023/10/31 09:16:04;;;;;;;;;0.00;0.00;;;;;27.84;30.20;100040.38;5078349;27;45467;-79
2023/10/31 09:18:29;;;;;;;;;0.00;0.00;;;;;28.20;30.25;100117.38;5077738;27;45431;-74
2023/10/31 09:20:55;;;;;;;;;1.00;0.00;;;;;28.08;30.44;100115.28;5077850;27;45434;-79
2023/10/31 09:23:20;;;;;;;;;0.00;0.00;;;;;28.01;30.04;100108.47;5077905;27;45976;-83
2023/10/31 09:25:46;;;;;;;;;5.00;4.00;;;;;27.78;31.03;100088.97;5077386;27;45555;-75
2023/10/31 09:28:12;;;;;;;;;2.33;2.00;;;;;27.68;30.27;100112.69;5077305;28;45280;-85
2023/10/31 09:30:38;;;;;;;;;1.00;1.00;;;;;27.27;30.80;100085.16;5078327;28;45511;-92
2023/10/31 09:33:03;;;;;;;;;1.00;1.00;;;;;27.42;31.33;100132.72;5076199;27;46981;-82
2023/10/31 09:35:29;;;;;;;;;8.33;7.00;;;;;27.48;31.37;100135.13;5077336;27;45475;-83
2023/10/31 09:37:55;;;;;;;;;3.00;2.00;;;;;27.46;31.89;100137.00;5076474;28;45450;-83
2023/10/31 09:40:21;;;;;;;;;3.00;2.33;;;;;27.46;31.15;100133.44;5077498;28;45489;-83
2023/10/31 09:42:49;;;;;;;;;16.50;16.50;;;;;27.02;31.78;100088.03;5077850;27;46699;-83
2023/10/31 09:45:14;;;;;;;;;7.00;6.00;;;;;27.05;31.86;100133.50;5076645;27;45447;-83
2023/10/31 09:47:41;;;;;;;;;2.33;0.67;;;;;27.07;31.78;100136.97;5078717;27;45259;-83
2023/10/31 09:50:09;;;;;;;;;1.67;1.00;;;;;26.69;32.28;100088.63;5078138;28;45201;-83
2023/10/31 09:52:38;;;;;;;;;0.00;0.00;;;;;26.99;31.41;100134.63;5093500;27;47015;-82
2023/10/31 09:55:05;;;;;;;;;1.00;1.00;;;;;26.70;31.46;100080.53;5093510;27;45454;-84
2023/10/31 09:57:31;;;;;;;;;0.00;0.00;;;;;26.54;31.70;100095.47;5076849;28;45486;-83
2023/10/31 09:59:56;;;;;;;;;1.00;1.00;;;;;26.46;31.94;100082.44;5076618;28;45441;-83
2023/10/31 10:02:22;;;;;;;;;0.00;0.00;;;;;26.89;31.67;100141.34;5078178;28;46205;-83
2023/10/31 10:04:49;;;;;;;;;1.00;0.00;;;;;26.57;32.22;100088.19;5078150;28;45461;-83
2023/10/31 10:07:19;;;;;;;;;0.00;0.00;;;;;26.75;32.06;100148.16;5077230;28;45410;-82
2023/10/31 10:09:46;;;;;;;;;0.00;0.00;;;;;26.69;31.84;100150.25;5078144;27;45466;-82
2023/10/31 10:12:13;;;;;;;;;0.67;0.00;;;;;26.41;31.79;100163.91;5077701;27;46652;-83
2023/10/31 10:14:41;;;;;;;;;2.00;1.00;;;;;25.71;31.73;100048.09;5077444;27;45327;-83
2023/10/31 10:17:24;;;;;;;;;1.00;0.00;;;;;26.16;32.23;100143.50;5076970;27;45294;-83
2023/10/31 10:20:19;;;;;;;;;0.00;0.00;;;;;26.36;32.06;100167.66;5077535;27;45539;-83
2023/10/31 10:22:46;;;;;;;;;8.67;8.67;;;;;26.29;32.08;100151.91;5072348;27;46189;-83
2023/10/31 10:25:18;;;;;;;;;2.00;1.00;;;;;26.34;32.98;100169.53;5077282;27;45382;-83
2023/10/31 10:27:45;;;;;;;;;0.67;0.67;;;;;25.99;31.46;100098.69;5077608;27;45428;-83
2023/10/31 10:30:12;;;;;;;;;1.00;1.00;;;;;26.25;32.02;100169.03;5077562;27;45317;-82
2023/10/31 10:32:38;;;;;;;;;0.00;0.00;;;;;26.32;32.90;100166.06;5077026;27;45227;-83
2023/10/31 10:35:04;;;;;;;;;0.00;0.00;;;;;25.49;32.63;100016.00;5077275;28;45369;-83
2023/10/31 10:37:31;;;;;;;;;0.00;0.00;;;;;26.18;32.19;100152.34;5077511;27;45523;-83
2023/10/31 10:39:59;;;;;;;;;1.00;1.00;;;;;25.99;32.48;100162.94;5077301;27;45354;-83
2023/10/31 10:42:49;;;;;;;;;0.00;0.00;;;;;25.71;32.82;100137.22;5077087;27;46126;-82
2023/10/31 10:45:15;;;;;;;;;1.00;1.00;;;;;25.86;33.48;100165.16;5092915;27;45226;-83
2023/10/31 10:47:46;;;;;;;;;1.00;1.00;;;;;25.56;33.35;100108.41;5078006;27;45502;-83
2023/10/31 10:50:13;;;;;;;;;1.00;0.00;;;;;25.92;33.12;100166.78;5077633;27;45360;-83
2023/10/31 10:52:48;;;;;;;;;0.00;0.00;;;;;25.79;32.38;100161.00;5077245;27;46069;-83
2023/10/31 10:55:24;;;;;;;;;0.00;0.00;;;;;25.54;32.61;100161.94;5077054;28;45435;-83
2023/10/31 10:58:08;;;;;;;;;1.00;1.00;;;;;25.20;33.27;100146.28;5077492;28;45252;-83
2023/10/31 11:00:34;;;;;;;;;0.00;0.00;;;;;25.27;33.79;100163.88;5076790;27;45277;-83
2023/10/31 11:03:01;;;;;;;;;1.00;1.00;;;;;24.65;33.31;100105.50;5076782;28;46111;-83
2023/10/31 11:05:27;;;;;;;;;0.00;0.00;;;;;24.92;33.33;100151.75;5076781;27;45220;-83
2023/10/31 11:07:55;;;;;;;;;0.00;0.00;;;;;24.57;33.10;100113.78;5076933;27;45297;-84
2023/10/31 11:10:21;;;;;;;;;0.00;0.00;;;;;24.35;33.72;100050.44;5076757;27;45341;-83
2023/10/31 11:12:47;;;;;;;;;0.00;0.00;;;;;24.92;33.77;100149.06;5077649;28;46361;-83
2023/10/31 11:15:16;;;;;;;;;0.33;0.00;;;;;24.67;34.07;100112.56;5077772;27;45497;-83
2023/10/31 11:17:46;;;;;;;;;0.33;0.00;;;;;24.87;34.13;100124.31;5077488;27;45617;-83
2023/10/31 11:20:14;;;;;;;;;0.00;0.00;;;;;25.00;33.41;100149.66;5077647;27;45358;-83
2023/10/31 11:22:42;;;;;;;;;0.33;0.00;;;;;24.97;33.67;100147.13;5076977;27;45970;-83
2023/10/31 11:25:12;;;;;;;;;0.00;0.00;;;;;24.69;33.97;100112.47;5076957;27;45540;-83